Aviation Digital Data Service (ADDS)

Output produced by METARs form (1537 UTC 27 May 2017)
found at http://aviationweather.gov/adds/metars/
 
KHPN 271437Z 2715/2812 31006KT P6SM BKN035 
     FM271900 13006KT P6SM BKN040 
     FM280100 VRB04KT P6SM BKN035 
     FM280900 VRB04KT P6SM SCT015 BKN035 
     TEMPO 2809/2812 BKN015 AMD NOT SKED